首页
METAR-TAF:

METAR-TAF

机场 :

莫尔莱, 法国

纬度: 48-36N, 经度: 3-49W, 海拔: 84米

当前天气观测

该预报发布于33分钟前的16:30 UTC
风速12节,风向北转西北,在西之间变化
温度 14°C
湿度 67%
气压 1007 hPa
能见度10公里或以上
多云层高于2100英尺
多云层高于2900英尺
多云层高于3700英尺

METAR: LFRU 041630Z AUTO 33012KT 280V360 9999 BKN021 BKN029 BKN037 14/08 Q1007

时间: 19:03 (17:03 UTC)


TAF: 丢失

超过4000个机场的气象观测和天气预报(METAR&TAF报告)。

可查询的气象台以黄色和红色小点在地图上表示。

将鼠标移到小点上方,可查看气象台名称。

然后点击查看天气观测和预报。

如需切换地图:点击带黑十字的绿色按钮放大地图;点击带横线的绿色按钮缩小地图;或者点击绿色箭头查看邻近地区的地图。


METAR-TAF: